Time;durP1;ratioP1;P1;durP2;ratioP2;P2;SDS_P1;SDS_P2;PMS_P1;PMS_P2;Temp;Humidity;BMP_temperature;BMP_pressure;BME280_temperature;BME280_humidity;BME280_pressure;Samples;Min_cycle;Max_cycle;Signal;HPM_P1;HPM_P2
2022/09/04 00:00:06;;;;;;;9.13;6.22;;;;;;;;;;6176297;23;20541;-87
2022/09/04 00:03:25;;;;;;;10.05;6.50;;;;;;;;;;6194094;23;20172;-87
2022/09/04 00:06:31;;;;;;;11.32;6.47;;;;;;;;;;6177723;23;20175;-88
2022/09/04 00:09:43;;;;;;;9.02;5.80;;;;;;;;;;6175432;23;20603;-88
2022/09/04 00:12:53;;;;;;;10.27;6.32;;;;;;;;;;6176602;23;20187;-86
2022/09/04 00:16:02;;;;;;;13.07;6.53;;;;;;;;;;6176581;23;20315;-88
2022/09/04 00:19:10;;;;;;;11.77;7.18;;;;;;;;;;6175050;23;20191;-87
2022/09/04 00:22:21;;;;;;;12.20;7.65;;;;;;;;;;6177186;23;20452;-90
2022/09/04 00:25:31;;;;;;;12.75;8.38;;;;;;;;;;6175756;23;20619;-86
2022/09/04 00:28:39;;;;;;;11.63;8.02;;;;;;;;;;6176864;23;20651;-88
2022/09/04 00:31:47;;;;;;;15.20;7.82;;;;;;;;;;6177481;23;20225;-89
2022/09/04 00:35:03;;;;;;;11.38;7.88;;;;;;;;;;6176216;23;20171;-87
2022/09/04 00:38:10;;;;;;;16.33;8.93;;;;;;;;;;6175874;23;20627;-88
2022/09/04 00:41:24;;;;;;;17.58;8.77;;;;;;;;;;6174333;23;20172;-87
2022/09/04 00:44:36;;;;;;;20.95;9.88;;;;;;;;;;6177013;23;20172;-89
2022/09/04 00:47:56;;;;;;;25.73;11.25;;;;;;;;;;6175511;23;20168;-89
2022/09/04 00:51:17;;;;;;;30.25;10.88;;;;;;;;;;6176313;23;20171;-88
2022/09/04 00:54:44;;;;;;;40.70;11.85;;;;;;;;;;6179612;23;20171;-86
2022/09/04 00:57:59;;;;;;;21.13;11.35;;;;;;;;;;6177842;23;20172;-88
2022/09/04 01:01:04;;;;;;;28.75;11.80;;;;;;;;;;6176947;23;20196;-89
2022/09/04 01:04:24;;;;;;;26.70;11.02;;;;;;;;;;6176759;23;20505;-88
2022/09/04 01:07:43;;;;;;;61.45;12.38;;;;;;;;;;6176746;23;20180;-87
2022/09/04 01:10:51;;;;;;;31.67;12.05;;;;;;;;;;6177791;23;20167;-89
2022/09/04 01:14:09;;;;;;;16.00;11.40;;;;;;;;;;6175929;23;20176;-87
2022/09/04 01:17:18;;;;;;;15.75;10.98;;;;;;;;;;6175926;23;20239;-88
2022/09/04 01:20:30;;;;;;;19.00;11.88;;;;;;;;;;6176272;23;20562;-87
2022/09/04 01:23:44;;;;;;;17.13;9.65;;;;;;;;;;6176049;23;20176;-88
2022/09/04 01:26:57;;;;;;;23.85;10.20;;;;;;;;;;6193251;23;20175;-87
2022/09/04 01:30:05;;;;;;;26.65;9.98;;;;;;;;;;6177214;23;20163;-87
2022/09/04 01:33:13;;;;;;;19.15;11.18;;;;;;;;;;6178273;23;20168;-88
2022/09/04 01:36:21;;;;;;;17.88;10.88;;;;;;;;;;6180880;23;20180;-88
2022/09/04 01:39:28;;;;;;;16.33;10.90;;;;;;;;;;6175727;23;20167;-89
2022/09/04 01:42:41;;;;;;;18.88;10.65;;;;;;;;;;6175313;23;20171;-89
2022/09/04 01:45:53;;;;;;;20.08;10.90;;;;;;;;;;6176430;23;20193;-88
2022/09/04 01:49:04;;;;;;;17.48;10.80;;;;;;;;;;6174220;23;20207;-88
2022/09/04 01:52:18;;;;;;;17.45;11.20;;;;;;;;;;6175047;23;20163;-88
2022/09/04 01:55:27;;;;;;;15.10;9.93;;;;;;;;;;6176605;23;20188;-90
2022/09/04 01:58:38;;;;;;;14.23;9.90;;;;;;;;;;6195270;23;20184;-87
2022/09/04 02:01:46;;;;;;;16.20;9.82;;;;;;;;;;6176611;23;20581;-88
2022/09/04 02:04:54;;;;;;;16.73;10.95;;;;;;;;;;6175002;23;20147;-89
2022/09/04 02:08:10;;;;;;;16.98;11.25;;;;;;;;;;6177104;23;20172;-88
2022/09/04 02:11:16;;;;;;;18.83;12.07;;;;;;;;;;6175817;23;20168;-89
2022/09/04 02:14:29;;;;;;;21.15;14.45;;;;;;;;;;6176604;23;20176;-89
2022/09/04 02:17:39;;;;;;;22.10;15.00;;;;;;;;;;6193915;23;20315;-88
2022/09/04 02:20:47;;;;;;;21.95;14.35;;;;;;;;;;6176923;23;20219;-87
2022/09/04 02:23:57;;;;;;;13.85;9.35;;;;;;;;;;6177678;23;20243;-90
2022/09/04 02:27:05;;;;;;;10.90;7.53;;;;;;;;;;6193220;23;20164;-88
2022/09/04 02:30:12;;;;;;;13.85;7.65;;;;;;;;;;6176481;23;20168;-89
2022/09/04 02:33:22;;;;;;;8.55;6.13;;;;;;;;;;6174989;23;20185;-88
2022/09/04 02:36:30;;;;;;;9.27;6.65;;;;;;;;;;6175430;23;20187;-88
2022/09/04 02:39:41;;;;;;;12.88;6.03;;;;;;;;;;6176795;23;20171;-88
2022/09/04 02:42:53;;;;;;;10.90;7.13;;;;;;;;;;6176867;23;20168;-89
2022/09/04 02:46:12;;;;;;;8.90;6.55;;;;;;;;;;6176945;23;20171;-88
2022/09/04 02:49:26;;;;;;;11.00;7.10;;;;;;;;;;6176091;23;20187;-88
2022/09/04 02:52:39;;;;;;;8.05;5.50;;;;;;;;;;6176856;23;20195;-87
2022/09/04 02:55:57;;;;;;;11.02;6.53;;;;;;;;;;6175846;23;20502;-90
2022/09/04 02:59:11;;;;;;;8.50;5.90;;;;;;;;;;6177076;23;20303;-89
2022/09/04 03:02:20;;;;;;;9.20;5.82;;;;;;;;;;6194019;23;20151;-88
2022/09/04 03:05:29;;;;;;;10.45;5.78;;;;;;;;;;6178673;23;20159;-87
2022/09/04 03:08:37;;;;;;;7.93;5.53;;;;;;;;;;6177442;23;20259;-88
2022/09/04 03:11:44;;;;;;;7.35;5.10;;;;;;;;;;6178219;23;20172;-89
2022/09/04 03:14:55;;;;;;;13.07;7.88;;;;;;;;;;6175405;23;20176;-88
2022/09/04 03:18:03;;;;;;;14.18;7.35;;;;;;;;;;6177329;23;20199;-87
2022/09/04 03:21:15;;;;;;;15.40;7.20;;;;;;;;;;6178210;23;20212;-87
2022/09/04 03:24:24;;;;;;;12.60;7.65;;;;;;;;;;6179305;23;20167;-89
2022/09/04 03:27:31;;;;;;;15.48;7.88;;;;;;;;;;6179828;23;20233;-89
2022/09/04 03:30:36;;;;;;;17.23;8.73;;;;;;;;;;6178764;23;20167;-90
2022/09/04 03:33:45;;;;;;;16.55;8.65;;;;;;;;;;6177669;23;20160;-88
2022/09/04 03:37:02;;;;;;;17.98;9.48;;;;;;;;;;6178972;23;20196;-90
2022/09/04 03:40:14;;;;;;;19.35;9.57;;;;;;;;;;6176766;23;20184;-87
2022/09/04 03:43:40;;;;;;;22.10;9.82;;;;;;;;;;6177851;23;20704;-89
2022/09/04 03:46:52;;;;;;;17.85;10.40;;;;;;;;;;6178051;23;20496;-88
2022/09/04 03:50:04;;;;;;;18.15;9.80;;;;;;;;;;6178735;23;20217;-88
2022/09/04 03:53:15;;;;;;;17.92;9.65;;;;;;;;;;6177076;23;20176;-90
2022/09/04 03:56:31;;;;;;;21.85;9.73;;;;;;;;;;6176748;23;20270;-86
2022/09/04 03:59:42;;;;;;;22.88;10.50;;;;;;;;;;6176720;23;20151;-88
2022/09/04 04:03:02;;;;;;;25.58;10.75;;;;;;;;;;6174692;23;20199;-90
2022/09/04 04:06:15;;;;;;;21.95;10.30;;;;;;;;;;6177197;23;20213;-89
2022/09/04 04:09:38;;;;;;;19.05;10.70;;;;;;;;;;6177689;23;20151;-88
2022/09/04 04:13:00;;;;;;;18.65;10.70;;;;;;;;;;6175139;23;20175;-87
2022/09/04 04:16:23;;;;;;;16.98;10.35;;;;;;;;;;6176860;23;20420;-87
2022/09/04 04:19:32;;;;;;;22.40;12.07;;;;;;;;;;6176428;23;20303;-90
2022/09/04 04:22:52;;;;;;;22.13;12.38;;;;;;;;;;6194581;23;20168;-89
2022/09/04 04:26:06;;;;;;;21.85;12.32;;;;;;;;;;6178486;23;20540;-86
2022/09/04 04:29:20;;;;;;;22.10;11.65;;;;;;;;;;6181590;23;20176;-89
2022/09/04 04:32:31;;;;;;;21.40;12.73;;;;;;;;;;6179301;23;20188;-88
2022/09/04 04:35:40;;;;;;;19.80;12.48;;;;;;;;;;6178075;23;20214;-88
2022/09/04 04:38:51;;;;;;;18.15;11.60;;;;;;;;;;6178130;23;20168;-88
2022/09/04 04:42:04;;;;;;;18.67;11.15;;;;;;;;;;6177555;23;20168;-87
2022/09/04 04:53:05;;;;;;;15.23;9.98;;;;;;;;;;6198613;23;20184;-89
2022/09/04 04:56:13;;;;;;;16.33;10.18;;;;;;;;;;6179886;23;20168;-89
2022/09/04 04:59:23;;;;;;;14.82;9.60;;;;;;;;;;6180038;23;20163;-88
2022/09/04 05:02:30;;;;;;;14.80;9.57;;;;;;;;;;6178071;23;20171;-88
2022/09/04 05:05:48;;;;;;;17.02;9.95;;;;;;;;;;6176991;23;20544;-88
2022/09/04 05:08:57;;;;;;;15.15;9.38;;;;;;;;;;6177235;23;20169;-89
2022/09/04 05:12:07;;;;;;;14.10;9.20;;;;;;;;;;6176949;23;20167;-89
2022/09/04 05:15:18;;;;;;;12.00;8.40;;;;;;;;;;6178299;23;20172;-89
2022/09/04 05:18:26;;;;;;;13.15;9.15;;;;;;;;;;6177700;23;20199;-88
2022/09/04 05:21:35;;;;;;;15.68;8.13;;;;;;;;;;6177565;23;20175;-90
2022/09/04 05:24:45;;;;;;;13.45;8.63;;;;;;;;;;6177202;23;20171;-90
2022/09/04 05:27:57;;;;;;;14.05;8.25;;;;;;;;;;6177530;23;20172;-89
2022/09/04 05:31:13;;;;;;;10.70;7.68;;;;;;;;;;6176031;23;20172;-90
2022/09/04 05:34:22;;;;;;;13.90;7.78;;;;;;;;;;6176451;23;20172;-89
2022/09/04 05:37:32;;;;;;;12.27;7.70;;;;;;;;;;6176340;23;20203;-89
2022/09/04 05:40:46;;;;;;;12.77;7.40;;;;;;;;;;6175167;23;20171;-87
2022/09/04 05:43:59;;;;;;;11.88;7.50;;;;;;;;;;6177148;23;20288;-89
2022/09/04 05:47:23;;;;;;;10.20;6.53;;;;;;;;;;6176780;23;20200;-88
2022/09/04 05:50:36;;;;;;;11.63;7.13;;;;;;;;;;6177637;23;20167;-88
2022/09/04 05:53:54;;;;;;;11.27;7.10;;;;;;;;;;6175556;23;20172;-88
2022/09/04 05:57:08;;;;;;;12.13;7.50;;;;;;;;;;6178000;23;20240;-88
2022/09/04 06:00:15;;;;;;;11.48;6.95;;;;;;;;;;6178661;23;20168;-90
2022/09/04 06:03:38;;;;;;;11.32;7.15;;;;;;;;;;6177551;23;20619;-89
2022/09/04 06:06:47;;;;;;;15.00;7.85;;;;;;;;;;6177597;23;20167;-88
2022/09/04 06:09:59;;;;;;;12.88;7.63;;;;;;;;;;6175219;23;20180;-89
2022/09/04 06:13:20;;;;;;;12.18;7.82;;;;;;;;;;6177095;23;20215;-88
2022/09/04 06:16:45;;;;;;;15.68;8.32;;;;;;;;;;6178457;23;20699;-88
2022/09/04 06:20:09;;;;;;;27.73;13.65;;;;;;;;;;6177319;23;20196;-89
2022/09/04 06:23:21;;;;;;;15.30;8.57;;;;;;;;;;6176690;23;20219;-89
2022/09/04 06:26:32;;;;;;;14.68;8.77;;;;;;;;;;6179594;23;20698;-89
2022/09/04 06:29:52;;;;;;;15.40;8.95;;;;;;;;;;6177853;23;20250;-90
2022/09/04 06:33:05;;;;;;;17.00;8.57;;;;;;;;;;6180047;23;20159;-88
2022/09/04 06:36:24;;;;;;;14.98;8.68;;;;;;;;;;6179313;23;20170;-88
2022/09/04 06:39:47;;;;;;;11.10;7.15;;;;;;;;;;6177425;23;20188;-87
2022/09/04 06:43:03;;;;;;;11.82;7.38;;;;;;;;;;6193521;23;20160;-88
2022/09/04 06:46:25;;;;;;;14.43;7.03;;;;;;;;;;6177330;23;20225;-89
2022/09/04 06:49:36;;;;;;;12.13;7.35;;;;;;;;;;6177472;23;20251;-87
2022/09/04 06:52:45;;;;;;;10.95;6.88;;;;;;;;;;6177063;23;20179;-87
2022/09/04 06:55:55;;;;;;;11.57;7.10;;;;;;;;;;6176769;23;20215;-87
2022/09/04 06:59:17;;;;;;;14.45;8.27;;;;;;;;;;6177735;23;20235;-87
2022/09/04 07:02:29;;;;;;;13.07;7.00;;;;;;;;;;6177105;23;20590;-89
2022/09/04 07:05:38;;;;;;;10.55;6.53;;;;;;;;;;6178198;23;20180;-87
2022/09/04 07:08:50;;;;;;;9.82;6.45;;;;;;;;;;6176385;23;20176;-89
2022/09/04 07:12:04;;;;;;;10.82;7.10;;;;;;;;;;6176736;23;20183;-88
2022/09/04 07:15:22;;;;;;;11.18;7.07;;;;;;;;;;6176195;23;20214;-89
2022/09/04 07:18:35;;;;;;;10.90;7.00;;;;;;;;;;6175570;23;20259;-88
2022/09/04 07:21:50;;;;;;;14.00;7.88;;;;;;;;;;6175825;23;20680;-87
2022/09/04 07:25:07;;;;;;;10.10;6.60;;;;;;;;;;6176306;23;20179;-87
2022/09/04 07:28:30;;;;;;;10.98;7.50;;;;;;;;;;6177588;23;20172;-87
2022/09/04 07:31:40;;;;;;;14.30;9.20;;;;;;;;;;6194900;23;20287;-85
2022/09/04 07:34:50;;;;;;;11.95;7.57;;;;;;;;;;6176182;23;20184;-88
2022/09/04 07:37:57;;;;;;;16.75;9.45;;;;;;;;;;6177034;23;20260;-82
2022/09/04 07:41:08;;;;;;;13.25;7.85;;;;;;;;;;6176639;23;20266;-89
2022/09/04 07:44:16;;;;;;;16.17;10.45;;;;;;;;;;6195443;23;20163;-89
2022/09/04 07:47:29;;;;;;;17.25;10.00;;;;;;;;;;6179843;23;20168;-90
2022/09/04 07:50:39;;;;;;;15.93;10.43;;;;;;;;;;6178211;23;20243;-89
2022/09/04 07:53:54;;;;;;;17.25;10.38;;;;;;;;;;6177474;23;20152;-89
2022/09/04 07:57:14;;;;;;;17.42;10.00;;;;;;;;;;6179516;23;20180;-89
2022/09/04 08:00:21;;;;;;;16.67;10.13;;;;;;;;;;6151487;23;20184;-88
2022/09/04 08:03:34;;;;;;;14.52;9.23;;;;;;;;;;6176868;23;20239;-88
2022/09/04 08:06:41;;;;;;;13.73;8.88;;;;;;;;;;6178070;23;20168;-89
2022/09/04 08:10:04;;;;;;;16.52;9.25;;;;;;;;;;6176966;23;20175;-89
2022/09/04 08:13:14;;;;;;;14.30;8.77;;;;;;;;;;6177934;23;20228;-88
2022/09/04 08:16:22;;;;;;;13.90;8.80;;;;;;;;;;6179502;23;20515;-87
2022/09/04 08:19:40;;;;;;;13.30;8.35;;;;;;;;;;6176130;23;20211;-86
2022/09/04 08:22:56;;;;;;;11.60;7.28;;;;;;;;;;6177367;23;20167;-88
2022/09/04 08:26:10;;;;;;;11.95;7.72;;;;;;;;;;6179065;23;20168;-89
2022/09/04 08:29:25;;;;;;;13.35;9.13;;;;;;;;;;6181809;23;20168;-89
2022/09/04 08:32:42;;;;;;;13.23;7.78;;;;;;;;;;6185023;23;20168;-88
2022/09/04 08:35:53;;;;;;;12.95;8.32;;;;;;;;;;6180946;23;20171;-88
2022/09/04 08:39:03;;;;;;;12.82;8.45;;;;;;;;;;6182909;23;20198;-88
2022/09/04 08:42:31;;;;;;;12.05;8.25;;;;;;;;;;6183385;23;20164;-90
2022/09/04 08:45:55;;;;;;;11.90;7.70;;;;;;;;;;6185716;23;20148;-88
2022/09/04 08:49:18;;;;;;;12.85;8.60;;;;;;;;;;6182709;23;20167;-87
2022/09/04 08:52:38;;;;;;;12.10;7.60;;;;;;;;;;6177480;23;20506;-89
2022/09/04 08:55:50;;;;;;;12.25;7.00;;;;;;;;;;6177495;23;20176;-88
2022/09/04 08:59:02;;;;;;;11.63;6.65;;;;;;;;;;6177861;23;20253;-90
2022/09/04 09:02:28;;;;;;;9.13;6.80;;;;;;;;;;6180250;23;20176;-90
2022/09/04 09:05:48;;;;;;;10.07;6.97;;;;;;;;;;6180503;23;20223;-90
2022/09/04 09:09:09;;;;;;;9.18;6.55;;;;;;;;;;6176622;23;20200;-89
2022/09/04 09:12:25;;;;;;;9.15;6.57;;;;;;;;;;6179956;23;20236;-89
2022/09/04 09:15:49;;;;;;;10.63;6.38;;;;;;;;;;6179145;23;20172;-90
2022/09/04 09:19:12;;;;;;;9.15;6.32;;;;;;;;;;6187751;23;20207;-94
2022/09/04 09:22:30;;;;;;;8.95;6.03;;;;;;;;;;6184329;23;20164;-90
2022/09/04 09:25:44;;;;;;;8.82;6.30;;;;;;;;;;6182719;23;20183;-89
2022/09/04 09:29:06;;;;;;;9.43;6.00;;;;;;;;;;6182230;23;20168;-92
2022/09/04 09:32:27;;;;;;;8.68;6.45;;;;;;;;;;6180185;23;20164;-89
2022/09/04 09:35:54;;;;;;;7.53;5.43;;;;;;;;;;6181804;23;20172;-91
2022/09/04 09:39:27;;;;;;;9.40;6.22;;;;;;;;;;6182846;23;20188;-90
2022/09/04 09:42:57;;;;;;;6.75;5.32;;;;;;;;;;6182887;23;20175;-88
2022/09/04 09:46:21;;;;;;;6.28;5.47;;;;;;;;;;6197240;23;20190;-89
2022/09/04 09:49:59;;;;;;;7.30;5.30;;;;;;;;;;6179716;23;20172;-89
2022/09/04 09:53:27;;;;;;;7.00;4.63;;;;;;;;;;6176407;23;20207;-89
2022/09/04 11:08:23;;;;;;;4.00;3.20;;;;;;;;;;6207491;23;20167;-88
2022/09/04 11:11:37;;;;;;;4.40;3.35;;;;;;;;;;6208313;23;20171;-89
2022/09/04 11:15:00;;;;;;;3.30;2.95;;;;;;;;;;6208598;23;20157;-86
2022/09/04 11:18:21;;;;;;;3.45;3.15;;;;;;;;;;6207921;23;20199;-89
2022/09/04 11:21:45;;;;;;;3.90;3.33;;;;;;;;;;6208922;23;20175;-87
2022/09/04 11:25:12;;;;;;;5.35;3.30;;;;;;;;;;6206073;23;20174;-91
2022/09/04 11:28:38;;;;;;;4.15;2.88;;;;;;;;;;6208786;23;20171;-91
2022/09/04 11:31:59;;;;;;;3.88;2.85;;;;;;;;;;6207632;23;20710;-90
2022/09/04 11:35:28;;;;;;;3.03;2.58;;;;;;;;;;6208835;23;20171;-88
2022/09/04 11:38:48;;;;;;;3.15;2.30;;;;;;;;;;6214066;23;20193;-89
2022/09/04 11:42:10;;;;;;;3.25;2.70;;;;;;;;;;6213404;23;20162;-90
2022/09/04 11:45:25;;;;;;;2.70;2.40;;;;;;;;;;6209749;23;20222;-89
2022/09/04 11:52:15;;;;;;;3.08;2.28;;;;;;;;;;6212614;23;20209;-91
2022/09/04 11:55:54;;;;;;;4.18;2.30;;;;;;;;;;6210287;23;20559;-88
2022/09/04 19:01:32;;;;;;;5.43;3.30;;;;;;;;;;6204308;22;20212;-87
2022/09/04 19:04:44;;;;;;;4.70;3.20;;;;;;;;;;6215890;23;20212;-88
2022/09/04 19:07:52;;;;;;;8.98;3.05;;;;;;;;;;6215780;23;20174;-88
2022/09/04 19:11:02;;;;;;;3.80;2.70;;;;;;;;;;6216256;23;20171;-88
2022/09/04 19:14:11;;;;;;;10.63;3.70;;;;;;;;;;6216886;23;20174;-89
2022/09/04 19:17:22;;;;;;;6.55;3.50;;;;;;;;;;6213250;23;20167;-89
2022/09/04 19:20:32;;;;;;;6.32;3.40;;;;;;;;;;6232069;23;20310;-87
2022/09/04 19:23:40;;;;;;;8.13;3.40;;;;;;;;;;6215415;23;20619;-87
2022/09/04 19:27:05;;;;;;;6.10;3.05;;;;;;;;;;6213912;23;20162;-87
2022/09/04 19:30:15;;;;;;;7.93;3.58;;;;;;;;;;6216520;23;20163;-89
2022/09/04 19:33:25;;;;;;;7.18;3.90;;;;;;;;;;6217568;23;20274;-90
2022/09/04 19:36:37;;;;;;;5.97;3.35;;;;;;;;;;6215801;23;20166;-89
2022/09/04 19:39:49;;;;;;;11.10;3.88;;;;;;;;;;6217464;23;20323;-87
2022/09/04 19:42:57;;;;;;;8.73;3.40;;;;;;;;;;6216591;23;20183;-87
2022/09/04 20:13:50;;;;;;;6.40;3.40;;;;;;;;;;6171571;22;20410;31
2022/09/04 20:17:09;;;;;;;10.18;5.40;;;;;;;;;;6197450;23;20237;-89
2022/09/04 20:20:17;;;;;;;12.15;5.40;;;;;;;;;;6198517;23;20187;-87
2022/09/04 20:23:25;;;;;;;9.35;5.13;;;;;;;;;;6200763;23;20216;-88
2022/09/04 20:26:33;;;;;;;8.85;4.30;;;;;;;;;;6182596;23;20182;-89
2022/09/04 20:29:42;;;;;;;11.65;3.97;;;;;;;;;;6195615;23;20172;-85
2022/09/04 20:32:51;;;;;;;7.00;4.32;;;;;;;;;;6181537;23;20196;-87
2022/09/04 20:36:01;;;;;;;7.25;3.80;;;;;;;;;;6198008;23;20168;-88
2022/09/04 20:39:09;;;;;;;6.90;3.25;;;;;;;;;;6181061;23;20188;-89
2022/09/04 20:42:24;;;;;;;7.47;3.50;;;;;;;;;;6200991;23;20241;-88
2022/09/04 20:45:35;;;;;;;6.20;3.53;;;;;;;;;;6199367;23;20233;-89
2022/09/04 20:49:15;;;;;;;9.40;4.10;;;;;;;;;;6179444;23;20152;-87
2022/09/04 20:52:34;;;;;;;7.57;3.92;;;;;;;;;;6196689;23;20160;-87
2022/09/04 20:55:46;;;;;;;4.97;3.58;;;;;;;;;;6195025;23;20197;-87
2022/09/04 20:58:55;;;;;;;7.40;3.90;;;;;;;;;;6194854;23;20551;-88
2022/09/04 21:02:09;;;;;;;7.18;3.78;;;;;;;;;;6195080;23;20147;-86
2022/09/04 21:05:31;;;;;;;9.20;4.20;;;;;;;;;;6198007;23;20604;-87
2022/09/04 21:08:43;;;;;;;6.43;4.00;;;;;;;;;;6196619;23;20152;-87
2022/09/04 21:11:51;;;;;;;9.15;5.03;;;;;;;;;;6198001;23;20175;-89
2022/09/04 21:15:03;;;;;;;6.47;4.07;;;;;;;;;;6178582;23;20196;-89
2022/09/04 21:18:31;;;;;;;9.23;3.72;;;;;;;;;;6203025;23;20171;-88
2022/09/04 21:21:51;;;;;;;8.63;3.70;;;;;;;;;;6183678;23;20241;-88
2022/09/04 21:25:13;;;;;;;6.07;4.00;;;;;;;;;;6199087;23;20172;-90
2022/09/04 21:28:45;;;;;;;5.50;3.70;;;;;;;;;;6178722;23;20167;-87
2022/09/04 21:32:07;;;;;;;10.25;4.40;;;;;;;;;;6195443;23;20168;-88
2022/09/04 21:35:16;;;;;;;6.45;3.95;;;;;;;;;;6175739;23;20171;-86
2022/09/04 21:38:44;;;;;;;6.50;3.70;;;;;;;;;;6191620;23;20255;-88
2022/09/04 21:42:13;;;;;;;10.00;3.85;;;;;;;;;;6193630;23;20168;-88
2022/09/04 21:45:36;;;;;;;7.20;3.80;;;;;;;;;;6175452;23;20260;-87
2022/09/04 21:48:46;;;;;;;6.18;3.78;;;;;;;;;;6173784;23;20619;-87
2022/09/04 21:52:01;;;;;;;7.53;3.92;;;;;;;;;;6191610;23;20168;-90
2022/09/04 21:55:15;;;;;;;7.72;3.92;;;;;;;;;;6191016;23;20264;-88
2022/09/04 21:58:29;;;;;;;12.80;4.13;;;;;;;;;;6175051;23;20504;-89
2022/09/04 22:01:48;;;;;;;8.98;4.55;;;;;;;;;;6189900;23;20164;-90
2022/09/04 22:04:59;;;;;;;11.32;3.75;;;;;;;;;;6193056;23;20602;-90
2022/09/04 22:08:09;;;;;;;6.90;3.90;;;;;;;;;;6193108;23;20180;-87
2022/09/04 22:11:19;;;;;;;7.82;3.60;;;;;;;;;;6175589;23;20316;-87
2022/09/04 22:14:29;;;;;;;11.27;3.63;;;;;;;;;;6173520;23;20303;-87
2022/09/04 22:17:52;;;;;;;6.07;3.40;;;;;;;;;;6174839;23;20164;-88
2022/09/04 22:21:04;;;;;;;10.23;3.78;;;;;;;;;;6173476;23;20575;-87
2022/09/04 22:24:26;;;;;;;6.82;3.70;;;;;;;;;;6190451;23;20274;-88
2022/09/04 22:27:49;;;;;;;7.88;3.97;;;;;;;;;;6188660;23;20612;-86
2022/09/04 22:31:04;;;;;;;5.88;3.92;;;;;;;;;;6173077;23;20168;-86
2022/09/04 22:34:23;;;;;;;9.00;4.85;;;;;;;;;;6190897;23;20628;-89
2022/09/04 22:37:38;;;;;;;7.00;4.18;;;;;;;;;;6190842;23;20172;-87
2022/09/04 22:40:48;;;;;;;10.60;4.55;;;;;;;;;;6171544;23;20635;-87
2022/09/04 22:44:00;;;;;;;11.02;4.43;;;;;;;;;;6190004;23;20152;-87
2022/09/04 22:47:25;;;;;;;9.07;3.97;;;;;;;;;;6191162;23;20203;-87
2022/09/04 22:50:46;;;;;;;9.23;4.40;;;;;;;;;;6191163;23;20235;-88
2022/09/04 22:54:00;;;;;;;6.20;4.05;;;;;;;;;;6171230;23;20218;-87
2022/09/04 22:57:07;;;;;;;9.98;3.88;;;;;;;;;;6173509;23;20168;-89
2022/09/04 23:00:14;;;;;;;8.30;4.03;;;;;;;;;;6173590;23;20548;-88
2022/09/04 23:03:26;;;;;;;8.80;4.45;;;;;;;;;;6192569;23;20167;-89
2022/09/04 23:06:49;;;;;;;6.60;4.20;;;;;;;;;;6191165;23;20491;-88
2022/09/04 23:10:12;;;;;;;11.80;4.75;;;;;;;;;;6173741;23;20213;-86
2022/09/04 23:13:27;;;;;;;11.25;4.25;;;;;;;;;;6172411;23;20235;-87
2022/09/04 23:16:50;;;;;;;6.63;4.05;;;;;;;;;;6173484;23;20176;-88
2022/09/04 23:20:29;;;;;;;8.68;3.97;;;;;;;;;;6188682;23;20528;-88
2022/09/04 23:23:48;;;;;;;6.65;4.03;;;;;;;;;;6190745;23;20622;-88
2022/09/04 23:27:19;;;;;;;8.43;4.15;;;;;;;;;;6191700;23;20172;-86
2022/09/04 23:30:24;;;;;;;7.50;4.30;;;;;;;;;;6188762;23;20536;-87
2022/09/04 23:33:48;;;;;;;7.70;4.53;;;;;;;;;;6190663;23;20224;-87
2022/09/04 23:37:07;;;;;;;5.55;4.03;;;;;;;;;;6191124;23;20212;-87
2022/09/04 23:40:27;;;;;;;6.32;3.90;;;;;;;;;;6173937;23;20644;-87
2022/09/04 23:43:48;;;;;;;8.57;4.38;;;;;;;;;;6189546;23;20172;-86
2022/09/04 23:47:03;;;;;;;14.18;4.75;;;;;;;;;;6142242;23;20254;-87
2022/09/04 23:50:14;;;;;;;7.60;4.05;;;;;;;;;;6173553;23;20199;-89
2022/09/04 23:53:25;;;;;;;7.35;4.22;;;;;;;;;;6190844;23;20180;-87
2022/09/04 23:56:34;;;;;;;7.80;3.92;;;;;;;;;;6189624;23;20167;-87
2022/09/04 23:59:42;;;;;;;7.90;4.43;;;;;;;;;;6173177;23;20179;-87
